Time,TemperatureF,DewpointF,PressureIn,WindDirection,WindDirectionDegrees,WindSpeedMPH,WindSpeedGustMPH,Humidity,HourlyPrecipIn,Conditions,Clouds,dailyrainin,SoftwareType,DateUTC
2013-05-05 00:00:00,44.0,-99.9,30.32,West,278,8.0,9.0,-999,-99.99,,,-99.99,,2013-05-05 04:00:00,
2013-05-05 00:43:00,44.0,-99.9,30.32,West,278,8.0,9.0,-999,-99.99,,,-99.99,,2013-05-05 04:43:00,
2013-05-05 00:53:00,44.0,-99.9,30.32,West,278,8.0,9.0,-999,-99.99,,,-99.99,,2013-05-05 04:53:00,
2013-05-05 01:00:00,45.0,-99.9,30.31,WNW,286,10.0,12.0,-999,-99.99,,,-99.99,,2013-05-05 05:00:00,
2013-05-05 01:42:00,45.0,-99.9,30.31,WNW,286,10.0,12.0,-999,-99.99,,,-99.99,,2013-05-05 05:42:00,
2013-05-05 01:52:00,45.0,-99.9,30.31,WNW,286,10.0,12.0,-999,-99.99,,,-99.99,,2013-05-05 05:52:00,
2013-05-05 02:00:00,44.0,-99.9,30.30,West,275,9.0,11.0,-999,-99.99,,,-99.99,,2013-05-05 06:00:00,
2013-05-05 02:42:00,44.0,-99.9,30.30,West,275,9.0,11.0,-999,-99.99,,,-99.99,,2013-05-05 06:42:00,
2013-05-05 02:52:00,44.0,-99.9,30.30,West,275,9.0,11.0,-999,-99.99,,,-99.99,,2013-05-05 06:52:00,
2013-05-05 03:00:00,44.0,-99.9,30.29,WNW,282,8.0,10.0,-999,-99.99,,,-99.99,,2013-05-05 07:00:00,
2013-05-05 03:42:00,44.0,-99.9,30.29,WNW,282,8.0,10.0,-999,-99.99,,,-99.99,,2013-05-05 07:42:00,
2013-05-05 03:52:00,44.0,-99.9,30.29,WNW,282,8.0,10.0,-999,-99.99,,,-99.99,,2013-05-05 07:52:00,
2013-05-05 04:00:00,44.0,-99.9,30.28,WNW,292,9.0,11.0,-999,-99.99,,,-99.99,,2013-05-05 08:00:00,
2013-05-05 04:42:00,44.0,-99.9,30.28,WNW,292,9.0,11.0,-999,-99.99,,,-99.99,,2013-05-05 08:42:00,
2013-05-05 04:53:00,44.0,-99.9,30.28,WNW,292,9.0,11.0,-999,-99.99,,,-99.99,,2013-05-05 08:53:00,
2013-05-05 05:00:00,44.0,-99.9,30.28,WNW,299,8.0,9.0,-999,-99.99,,,-99.99,,2013-05-05 09:00:00,
2013-05-05 05:42:00,44.0,-99.9,30.28,WNW,299,8.0,9.0,-999,-99.99,,,-99.99,,2013-05-05 09:42:00,
2013-05-05 05:53:00,44.0,-99.9,30.28,WNW,299,8.0,9.0,-999,-99.99,,,-99.99,,2013-05-05 09:53:00,
2013-05-05 06:00:00,45.0,-99.9,30.29,NW,309,8.0,9.0,-999,-99.99,,,-99.99,,2013-05-05 10:00:00,
2013-05-05 06:42:00,45.0,-99.9,30.29,NW,309,8.0,9.0,-999,-99.99,,,-99.99,,2013-05-05 10:42:00,
2013-05-05 06:53:00,45.0,-99.9,30.29,NW,309,8.0,9.0,-999,-99.99,,,-99.99,,2013-05-05 10:53:00,
2013-05-05 07:00:00,47.0,-99.9,30.28,West,278,6.0,7.0,-999,-99.99,,,-99.99,,2013-05-05 11:00:00,
2013-05-05 07:42:00,47.0,-99.9,30.28,West,278,6.0,7.0,-999,-99.99,,,-99.99,,2013-05-05 11:42:00,
2013-05-05 07:52:00,47.0,-99.9,30.28,West,278,6.0,7.0,-999,-99.99,,,-99.99,,2013-05-05 11:52:00,
2013-05-05 08:00:00,47.0,-99.9,30.29,West,270,6.0,8.0,-999,-99.99,,,-99.99,,2013-05-05 12:00:00,
2013-05-05 08:42:00,47.0,-99.9,30.29,West,270,6.0,8.0,-999,-99.99,,,-99.99,,2013-05-05 12:42:00,
2013-05-05 08:52:00,47.0,-99.9,30.29,West,270,6.0,8.0,-999,-99.99,,,-99.99,,2013-05-05 12:52:00,
2013-05-05 09:00:00,49.0,-99.9,30.29,SSW,208,5.0,6.0,-999,-99.99,,,-99.99,,2013-05-05 13:00:00,
2013-05-05 09:42:00,49.0,-99.9,30.29,SSW,208,5.0,6.0,-999,-99.99,,,-99.99,,2013-05-05 13:42:00,
2013-05-05 09:52:00,49.0,-99.9,30.29,SSW,208,5.0,6.0,-999,-99.99,,,-99.99,,2013-05-05 13:52:00,
2013-05-05 10:00:00,47.0,-99.9,30.29,South,185,10.0,11.0,-999,-99.99,,,-99.99,,2013-05-05 14:00:00,
2013-05-05 10:42:00,47.0,-99.9,30.29,South,185,10.0,11.0,-999,-99.99,,,-99.99,,2013-05-05 14:42:00,
2013-05-05 10:52:00,47.0,-99.9,30.29,South,185,10.0,11.0,-999,-99.99,,,-99.99,,2013-05-05 14:52:00,
2013-05-05 11:00:00,47.0,-99.9,30.29,South,184,11.0,13.0,-999,-99.99,,,-99.99,,2013-05-05 15:00:00,
2013-05-05 11:43:00,47.0,-99.9,30.29,South,184,11.0,13.0,-999,-99.99,,,-99.99,,2013-05-05 15:43:00,
2013-05-05 11:53:00,47.0,-99.9,30.29,South,184,11.0,13.0,-999,-99.99,,,-99.99,,2013-05-05 15:53:00,
2013-05-05 12:00:00,47.0,-99.9,30.28,SSW,193,15.0,16.0,-999,-99.99,,,-99.99,,2013-05-05 16:00:00,
2013-05-05 12:42:00,47.0,-99.9,30.28,SSW,193,15.0,16.0,-999,-99.99,,,-99.99,,2013-05-05 16:42:00,
2013-05-05 12:53:00,47.0,-99.9,30.28,SSW,193,15.0,16.0,-999,-99.99,,,-99.99,,2013-05-05 16:53:00,
2013-05-05 13:00:00,48.0,-99.9,30.28,SSW,213,15.0,18.0,-999,-99.99,,,-99.99,,2013-05-05 17:00:00,
2013-05-05 13:42:00,48.0,-99.9,30.28,SSW,213,15.0,18.0,-999,-99.99,,,-99.99,,2013-05-05 17:42:00,
2013-05-05 13:52:00,48.0,-99.9,30.28,SSW,213,15.0,18.0,-999,-99.99,,,-99.99,,2013-05-05 17:52:00,
2013-05-05 14:00:00,48.0,-99.9,30.28,SW,217,15.0,18.0,-999,-99.99,,,-99.99,,2013-05-05 18:00:00,
2013-05-05 14:42:00,48.0,-99.9,30.28,SW,217,15.0,18.0,-999,-99.99,,,-99.99,,2013-05-05 18:42:00,
2013-05-05 14:52:00,48.0,-99.9,30.28,SW,217,15.0,18.0,-999,-99.99,,,-99.99,,2013-05-05 18:52:00,
2013-05-05 15:00:00,48.0,-99.9,30.27,SW,217,17.0,19.0,-999,-99.99,,,-99.99,,2013-05-05 19:00:00,
2013-05-05 15:42:00,48.0,-99.9,30.27,SW,217,17.0,19.0,-999,-99.99,,,-99.99,,2013-05-05 19:42:00,
2013-05-05 15:52:00,48.0,-99.9,30.27,SW,217,17.0,19.0,-999,-99.99,,,-99.99,,2013-05-05 19:52:00,
2013-05-05 16:00:00,47.0,-99.9,30.26,SW,220,17.0,20.0,-999,-99.99,,,-99.99,,2013-05-05 20:00:00,
2013-05-05 16:42:00,47.0,-99.9,30.26,SW,220,17.0,20.0,-999,-99.99,,,-99.99,,2013-05-05 20:42:00,
2013-05-05 16:52:00,47.0,-99.9,30.26,SW,220,17.0,20.0,-999,-99.99,,,-99.99,,2013-05-05 20:52:00,
2013-05-05 17:00:00,47.0,-99.9,30.25,SW,224,16.0,18.0,-999,-99.99,,,-99.99,,2013-05-05 21:00:00,
2013-05-05 17:42:00,47.0,-99.9,30.25,SW,224,16.0,18.0,-999,-99.99,,,-99.99,,2013-05-05 21:42:00,
2013-05-05 17:53:00,47.0,-99.9,30.25,SW,224,16.0,18.0,-999,-99.99,,,-99.99,,2013-05-05 21:53:00,
2013-05-05 18:00:00,47.0,-99.9,30.24,SW,226,15.0,18.0,-999,-99.99,,,-99.99,,2013-05-05 22:00:00,
2013-05-05 19:00:00,47.0,-99.9,30.24,WSW,246,13.0,15.0,-999,-99.99,,,-99.99,,2013-05-05 23:00:00,
2013-05-05 19:42:00,47.0,-99.9,30.24,WSW,246,13.0,15.0,-999,-99.99,,,-99.99,,2013-05-05 23:42:00,
2013-05-05 19:52:00,47.0,-99.9,30.24,WSW,246,13.0,15.0,-999,-99.99,,,-99.99,,2013-05-05 23:52:00,
2013-05-05 20:00:00,47.0,-99.9,30.23,WSW,240,10.0,12.0,-999,-99.99,,,-99.99,,2013-05-06 00:00:00,
2013-05-05 20:42:00,47.0,-99.9,30.23,WSW,240,10.0,12.0,-999,-99.99,,,-99.99,,2013-05-06 00:42:00,
2013-05-05 20:52:00,47.0,-99.9,30.23,WSW,240,10.0,12.0,-999,-99.99,,,-99.99,,2013-05-06 00:52:00,
2013-05-05 21:00:00,46.0,-99.9,30.24,WSW,239,10.0,12.0,-999,-99.99,,,-99.99,,2013-05-06 01:00:00,
2013-05-05 21:42:00,46.0,-99.9,30.24,WSW,239,10.0,12.0,-999,-99.99,,,-99.99,,2013-05-06 01:42:00,
2013-05-05 21:52:00,46.0,-99.9,30.24,WSW,239,10.0,12.0,-999,-99.99,,,-99.99,,2013-05-06 01:52:00,
2013-05-05 22:00:00,46.0,-99.9,30.24,SW,235,9.0,11.0,-999,-99.99,,,-99.99,,2013-05-06 02:00:00,
2013-05-05 22:42:00,46.0,-99.9,30.24,SW,235,9.0,11.0,-999,-99.99,,,-99.99,,2013-05-06 02:42:00,
2013-05-05 22:52:00,46.0,-99.9,30.24,SW,235,9.0,11.0,-999,-99.99,,,-99.99,,2013-05-06 02:52:00,
2013-05-05 23:00:00,46.0,-99.9,30.24,WSW,241,11.0,12.0,-999,-99.99,,,-99.99,,2013-05-06 03:00:00,
2013-05-05 23:43:00,46.0,-99.9,30.24,WSW,241,11.0,12.0,-999,-99.99,,,-99.99,,2013-05-06 03:43:00,
2013-05-05 23:53:00,46.0,-99.9,30.24,WSW,241,11.0,12.0,-999,-99.99,,,-99.99,,2013-05-06 03:53:00,